createdAt,value
2023-07-06T00:01:59.363Z,21.45
2023-07-06T00:05:01.263Z,21.43
2023-07-06T00:08:03.426Z,21.43
2023-07-06T00:11:06.172Z,21.33
2023-07-06T00:14:10.030Z,21.08
2023-07-06T00:17:13.876Z,20.89
2023-07-06T00:20:15.736Z,20.77
2023-07-06T00:23:17.722Z,20.47
2023-07-06T00:26:21.340Z,20.34
2023-07-06T00:29:23.148Z,20.21
2023-07-06T00:32:29.833Z,20.22
2023-07-06T00:35:31.961Z,20.16
2023-07-06T00:38:33.716Z,20.17
2023-07-06T00:41:35.474Z,20.33
2023-07-06T00:44:55.373Z,20.20
2023-07-06T00:48:00.906Z,19.81
2023-07-06T00:51:09.666Z,19.62
2023-07-06T00:54:17.750Z,19.69
2023-07-06T00:57:22.095Z,19.69
2023-07-06T01:00:24.313Z,19.82
2023-07-06T01:03:26.325Z,19.76
2023-07-06T01:06:33.566Z,19.90
2023-07-06T01:09:35.538Z,20.09
2023-07-06T01:12:37.604Z,20.15
2023-07-06T01:16:11.433Z,20.19
2023-07-06T01:19:30.035Z,20.22
2023-07-06T01:22:37.777Z,20.27
2023-07-06T01:26:00.699Z,20.30
2023-07-06T01:29:05.544Z,20.30
2023-07-06T01:32:18.458Z,20.33
2023-07-06T01:35:28.575Z,20.30
2023-07-06T01:38:31.003Z,20.24
2023-07-06T01:41:32.918Z,20.21
2023-07-06T01:44:35.095Z,20.14
2023-07-06T01:47:40.508Z,20.12
2023-07-06T01:51:00.656Z,20.11
2023-07-06T01:54:07.825Z,19.96
2023-07-06T01:57:21.458Z,19.83
2023-07-06T02:00:24.227Z,19.83
2023-07-06T02:03:26.701Z,19.95
2023-07-06T02:06:29.233Z,19.94
2023-07-06T02:09:31.264Z,19.91
2023-07-06T02:12:33.013Z,19.79
2023-07-06T02:15:34.904Z,19.64
2023-07-06T02:18:37.243Z,19.81
2023-07-06T02:21:40.083Z,19.87
2023-07-06T02:24:41.980Z,19.87
2023-07-06T02:27:43.791Z,19.71
2023-07-06T02:30:45.599Z,19.83
2023-07-06T02:33:47.823Z,19.83
2023-07-06T02:36:50.609Z,19.77
2023-07-06T02:39:52.502Z,19.79
2023-07-06T02:42:54.264Z,19.60
2023-07-06T02:45:56.522Z,19.40
2023-07-06T02:48:58.448Z,19.45
2023-07-06T02:52:03.671Z,19.57
2023-07-06T02:55:06.081Z,19.67
2023-07-06T02:58:07.909Z,19.70
2023-07-06T03:01:09.745Z,19.72
2023-07-06T03:04:11.733Z,19.65
2023-07-06T03:07:13.537Z,19.59
2023-07-06T03:10:18.611Z,19.65
2023-07-06T03:13:20.399Z,19.69
2023-07-06T03:16:22.569Z,19.73
2023-07-06T03:19:24.419Z,19.77
2023-07-06T03:22:26.695Z,19.79
2023-07-06T03:25:29.294Z,19.87
2023-07-06T03:28:31.103Z,19.90
2023-07-06T03:31:34.447Z,19.98
2023-07-06T03:34:37.189Z,20.04
2023-07-06T03:37:40.696Z,20.06
2023-07-06T03:40:42.447Z,20.12
2023-07-06T03:43:44.921Z,20.19
2023-07-06T03:46:46.717Z,20.32
2023-07-06T03:49:48.507Z,21.55
2023-07-06T03:52:50.379Z,22.74
2023-07-06T03:55:55.349Z,23.22
2023-07-06T03:58:58.184Z,24.20
2023-07-06T04:02:00.768Z,24.98
2023-07-06T04:05:03.114Z,23.47
2023-07-06T04:08:12.923Z,22.23
2023-07-06T04:11:14.648Z,22.78
2023-07-06T04:14:16.467Z,22.77
2023-07-06T04:17:18.233Z,22.65
2023-07-06T04:20:22.787Z,25.27
2023-07-06T04:23:25.072Z,27.01
2023-07-06T04:26:26.810Z,27.26
2023-07-06T04:29:30.695Z,26.06
2023-07-06T04:32:32.696Z,25.15
2023-07-06T04:35:35.417Z,24.12
2023-07-06T04:38:38.116Z,24.45
2023-07-06T04:41:39.973Z,25.50
2023-07-06T04:44:41.870Z,24.97
2023-07-06T04:47:45.498Z,24.76
2023-07-06T04:50:47.499Z,24.26
2023-07-06T04:53:49.581Z,23.74
2023-07-06T04:56:52.279Z,23.03
2023-07-06T04:59:54.148Z,22.90
2023-07-06T05:02:59.670Z,23.06
2023-07-06T05:06:07.082Z,23.11
2023-07-06T05:09:08.890Z,22.89
2023-07-06T05:12:11.350Z,22.94
2023-07-06T05:15:13.929Z,22.73
2023-07-06T05:18:16.297Z,22.82
2023-07-06T05:21:18.165Z,22.81
2023-07-06T05:24:19.903Z,22.81
2023-07-06T05:27:21.682Z,22.67
2023-07-06T05:30:25.325Z,22.49
2023-07-06T05:33:27.108Z,22.67
2023-07-06T05:36:28.955Z,22.68
2023-07-06T05:39:30.936Z,22.43
2023-07-06T05:42:33.027Z,22.41
2023-07-06T05:45:34.951Z,22.35
2023-07-06T05:48:36.725Z,22.39
2023-07-06T05:51:38.477Z,22.26
2023-07-06T05:54:40.623Z,22.29
2023-07-06T05:57:42.971Z,22.33
2023-07-06T06:00:44.723Z,22.41
2023-07-06T06:03:47.320Z,22.40
2023-07-06T06:06:55.279Z,22.29
2023-07-06T06:09:57.020Z,22.37
2023-07-06T06:12:59.077Z,22.43
2023-07-06T06:16:00.899Z,22.49
2023-07-06T06:19:03.840Z,22.55
2023-07-06T06:22:07.292Z,22.80
2023-07-06T06:25:09.989Z,22.81
2023-07-06T06:28:11.724Z,22.87
2023-07-06T06:31:13.499Z,22.96
2023-07-06T06:34:15.294Z,22.98
2023-07-06T06:37:18.057Z,23.04
2023-07-06T06:40:21.111Z,22.96
2023-07-06T06:43:24.436Z,22.89
2023-07-06T06:46:26.356Z,22.82
2023-07-06T06:49:28.720Z,22.76
2023-07-06T06:52:30.506Z,22.55
2023-07-06T06:55:32.331Z,22.45
2023-07-06T06:58:34.517Z,22.40
2023-07-06T07:01:37.421Z,22.35
2023-07-06T07:04:39.938Z,22.26
2023-07-06T07:07:42.326Z,22.20
2023-07-06T07:10:44.225Z,22.25
2023-07-06T07:13:46.948Z,22.45
2023-07-06T07:16:48.784Z,22.58
2023-07-06T07:19:50.639Z,22.58
2023-07-06T07:22:52.434Z,23.13
2023-07-06T07:25:54.997Z,23.50
2023-07-06T07:28:56.881Z,23.82
2023-07-06T07:31:58.843Z,24.14
2023-07-06T07:35:00.601Z,24.09
2023-07-06T07:38:02.656Z,24.23
2023-07-06T07:41:07.762Z,24.48
2023-07-06T07:44:10.290Z,24.55
2023-07-06T07:47:12.868Z,25.17
2023-07-06T07:50:14.800Z,25.10
2023-07-06T07:53:16.686Z,25.27
2023-07-06T07:56:19.114Z,25.43
2023-07-06T07:59:21.624Z,25.55
2023-07-06T08:02:23.678Z,25.73
2023-07-06T08:05:25.596Z,25.76
2023-07-06T08:08:27.403Z,25.48
2023-07-06T08:11:29.996Z,25.50
2023-07-06T08:14:42.859Z,26.13
2023-07-06T08:17:44.749Z,26.15
2023-07-06T08:21:11.761Z,26.44
2023-07-06T08:24:10.821Z,26.15
2023-07-06T08:27:13.894Z,26.72
2023-07-06T08:30:16.856Z,26.79
2023-07-06T08:33:22.216Z,26.84
2023-07-06T08:36:24.054Z,26.68
2023-07-06T08:39:25.978Z,26.76
2023-07-06T08:42:28.073Z,26.12
2023-07-06T08:45:40.539Z,26.30
2023-07-06T08:48:42.442Z,25.33
2023-07-06T08:51:44.786Z,25.03
2023-07-06T08:54:51.377Z,24.64
2023-07-06T08:57:53.971Z,25.57
2023-07-06T09:01:01.695Z,26.39
2023-07-06T09:04:13.690Z,25.48
2023-07-06T09:07:17.936Z,26.02
2023-07-06T09:10:26.301Z,25.92
2023-07-06T09:13:29.474Z,25.63
2023-07-06T09:16:35.302Z,26.44
2023-07-06T09:19:39.959Z,26.77
2023-07-06T09:22:42.450Z,25.97
2023-07-06T09:25:47.056Z,26.58
2023-07-06T09:28:48.877Z,26.87
2023-07-06T09:31:50.667Z,25.30
2023-07-06T09:35:01.533Z,25.80
2023-07-06T09:38:04.170Z,26.02
2023-07-06T09:41:28.180Z,26.02
2023-07-06T09:44:31.686Z,24.79
2023-07-06T09:47:34.636Z,24.83
2023-07-06T09:50:44.280Z,25.03
2023-07-06T09:53:53.626Z,24.96
2023-07-06T09:56:55.587Z,25.48
2023-07-06T09:59:59.462Z,25.47
2023-07-06T10:03:10.676Z,25.73
2023-07-06T10:06:45.766Z,25.24
2023-07-06T10:10:03.591Z,25.89
2023-07-06T10:13:11.148Z,26.17
2023-07-06T10:16:16.504Z,26.54
2023-07-06T10:19:29.993Z,27.02
2023-07-06T10:22:48.303Z,27.52
2023-07-06T10:25:58.822Z,27.87
2023-07-06T10:29:10.748Z,27.62
2023-07-06T10:32:15.942Z,27.65
2023-07-06T10:35:22.060Z,28.71
2023-07-06T10:38:23.831Z,28.72
2023-07-06T10:41:33.110Z,29.12
2023-07-06T10:44:49.938Z,29.05
2023-07-06T10:47:51.891Z,29.49
2023-07-06T10:51:21.745Z,29.48
2023-07-06T10:54:26.824Z,29.46
2023-07-06T10:57:35.826Z,29.89
2023-07-06T11:00:40.011Z,30.21
2023-07-06T11:03:44.019Z,29.77
2023-07-06T11:06:54.076Z,29.70
2023-07-06T11:10:14.427Z,29.87
2023-07-06T11:13:20.241Z,29.45
2023-07-06T11:16:28.094Z,29.42
2023-07-06T11:19:37.831Z,29.37
2023-07-06T11:22:40.403Z,29.45
2023-07-06T11:25:42.541Z,29.23
2023-07-06T11:28:45.103Z,29.31
2023-07-06T11:32:00.117Z,29.35
2023-07-06T11:35:12.142Z,29.28
2023-07-06T11:38:40.203Z,29.02
2023-07-06T11:41:54.816Z,28.99
2023-07-06T11:44:56.826Z,28.75
2023-07-06T11:48:36.247Z,29.09
2023-07-06T11:51:38.624Z,29.36
2023-07-06T11:54:52.428Z,28.86
2023-07-06T11:58:06.630Z,29.54
2023-07-06T12:01:21.815Z,29.48
2023-07-06T12:04:25.364Z,29.62
2023-07-06T12:07:32.072Z,30.05
2023-07-06T12:10:35.422Z,30.23
2023-07-06T12:13:45.942Z,30.66
2023-07-06T12:16:49.450Z,30.76
2023-07-06T12:19:59.164Z,30.09
2023-07-06T12:23:01.379Z,29.99
2023-07-06T12:26:04.477Z,29.76
2023-07-06T12:29:06.260Z,30.24
2023-07-06T12:32:21.138Z,30.04
2023-07-06T12:35:23.422Z,30.40
2023-07-06T12:38:25.489Z,30.51
2023-07-06T12:41:27.658Z,30.52
2023-07-06T12:44:30.798Z,30.16
2023-07-06T12:47:34.099Z,30.04
2023-07-06T12:50:38.998Z,29.90
2023-07-06T12:53:40.964Z,29.72
2023-07-06T12:56:45.484Z,29.97
2023-07-06T12:59:51.543Z,30.28
2023-07-06T13:02:58.277Z,30.39
2023-07-06T13:06:01.236Z,30.22
2023-07-06T13:09:03.632Z,30.91
2023-07-06T13:12:11.165Z,31.11
2023-07-06T13:15:19.386Z,30.12
2023-07-06T13:18:21.260Z,30.71
2023-07-06T13:21:26.964Z,30.88
2023-07-06T13:24:33.495Z,30.84
2023-07-06T13:27:35.270Z,29.28
2023-07-06T13:30:37.483Z,29.42
2023-07-06T13:33:41.254Z,30.19
2023-07-06T13:36:43.230Z,30.03
2023-07-06T13:39:45.242Z,29.10
2023-07-06T13:42:49.037Z,28.22
2023-07-06T13:45:51.373Z,28.00
2023-07-06T13:48:53.609Z,28.02
2023-07-06T13:51:56.569Z,27.09
2023-07-06T13:54:58.778Z,27.33
2023-07-06T13:58:00.577Z,27.14
2023-07-06T14:01:03.452Z,27.22
2023-07-06T14:04:05.731Z,27.15
2023-07-06T14:07:07.629Z,27.32
2023-07-06T14:10:10.400Z,27.16
2023-07-06T14:13:14.435Z,27.24
2023-07-06T14:16:16.284Z,26.99
2023-07-06T14:19:18.091Z,26.94
2023-07-06T14:22:23.309Z,27.30
2023-07-06T14:25:26.737Z,27.26
2023-07-06T14:28:29.014Z,26.48
2023-07-06T14:31:34.095Z,26.74
2023-07-06T14:34:35.854Z,26.81
2023-07-06T14:37:40.095Z,26.68
2023-07-06T14:40:43.878Z,27.10
2023-07-06T14:43:45.598Z,27.02
2023-07-06T14:46:47.344Z,26.64
2023-07-06T14:49:49.854Z,26.99
2023-07-06T14:52:55.770Z,27.17
2023-07-06T14:55:58.252Z,26.82
2023-07-06T14:59:00.192Z,26.84
2023-07-06T15:02:01.935Z,26.45
2023-07-06T15:05:04.612Z,26.34
2023-07-06T15:08:06.943Z,26.58
2023-07-06T15:11:08.747Z,26.92
2023-07-06T15:14:10.608Z,27.13
2023-07-06T15:17:12.360Z,27.24
2023-07-06T15:20:14.302Z,26.68
2023-07-06T15:23:16.034Z,26.71
2023-07-06T15:26:17.760Z,26.60
2023-07-06T15:29:19.591Z,26.32
2023-07-06T15:32:21.742Z,26.36
2023-07-06T15:35:23.736Z,26.68
2023-07-06T15:38:26.433Z,26.46
2023-07-06T15:41:36.317Z,26.55
2023-07-06T15:44:38.177Z,26.72
2023-07-06T15:47:52.304Z,26.40
2023-07-06T15:50:59.715Z,26.24
2023-07-06T15:54:02.282Z,26.27
2023-07-06T15:57:04.260Z,26.17
2023-07-06T16:00:11.580Z,26.14
2023-07-06T16:03:13.694Z,26.01
2023-07-06T16:06:15.559Z,26.05
2023-07-06T16:09:17.313Z,25.95
2023-07-06T16:12:19.133Z,26.09
2023-07-06T16:15:20.919Z,26.02
2023-07-06T16:18:22.824Z,25.77
2023-07-06T16:21:24.658Z,25.90
2023-07-06T16:24:26.441Z,25.92
2023-07-06T16:27:28.293Z,25.99
2023-07-06T16:30:30.029Z,25.95
2023-07-06T16:33:32.308Z,25.89
2023-07-06T16:36:34.308Z,25.91
2023-07-06T16:39:36.193Z,25.76
2023-07-06T16:42:37.930Z,25.75
2023-07-06T16:45:39.796Z,25.63
2023-07-06T16:48:41.559Z,25.42
2023-07-06T16:51:43.297Z,25.37
2023-07-06T16:54:45.520Z,25.27
2023-07-06T16:57:47.655Z,25.25
2023-07-06T17:00:49.385Z,25.34
2023-07-06T17:03:51.437Z,25.34
2023-07-06T17:06:54.362Z,25.33
2023-07-06T17:09:56.138Z,25.36
2023-07-06T17:12:57.906Z,25.48
2023-07-06T17:16:00.436Z,25.34
2023-07-06T17:19:02.201Z,25.14
2023-07-06T17:22:04.110Z,25.11
2023-07-06T17:25:06.607Z,25.02
2023-07-06T17:28:08.408Z,25.01
2023-07-06T17:31:13.870Z,24.81
2023-07-06T17:34:15.800Z,24.72
2023-07-06T17:37:17.662Z,24.69
2023-07-06T17:40:19.385Z,24.70
2023-07-06T17:43:21.122Z,24.67
2023-07-06T17:46:22.940Z,24.66
2023-07-06T17:49:24.724Z,24.59
2023-07-06T17:52:26.547Z,24.29
2023-07-06T17:55:28.966Z,24.22
2023-07-06T17:58:30.865Z,24.20
2023-07-06T18:01:32.844Z,24.10
2023-07-06T18:04:34.621Z,24.03
2023-07-06T18:07:36.402Z,24.18
2023-07-06T18:10:38.660Z,24.28
2023-07-06T18:13:40.470Z,24.14
2023-07-06T18:16:42.263Z,24.12
2023-07-06T18:19:44.180Z,24.17
2023-07-06T18:22:46.106Z,24.16
2023-07-06T18:25:48.326Z,24.11
2023-07-06T18:28:50.162Z,24.09
2023-07-06T18:31:51.960Z,24.10
2023-07-06T18:34:53.850Z,24.09
2023-07-06T18:37:55.665Z,23.99
2023-07-06T18:41:01.547Z,24.00
2023-07-06T18:44:03.572Z,23.92
2023-07-06T18:47:05.821Z,23.84
2023-07-06T18:50:08.085Z,23.76
2023-07-06T18:53:09.830Z,23.72
2023-07-06T18:56:11.638Z,23.61
2023-07-06T18:59:13.461Z,23.22
2023-07-06T19:02:15.327Z,23.13
2023-07-06T19:05:17.327Z,23.13
2023-07-06T19:08:19.157Z,23.16
2023-07-06T19:11:20.984Z,23.16
2023-07-06T19:14:22.809Z,23.15
2023-07-06T19:17:24.686Z,23.15
2023-07-06T19:20:26.627Z,23.11
2023-07-06T19:23:29.806Z,23.12
2023-07-06T19:26:31.627Z,23.10
2023-07-06T19:29:33.397Z,23.06
2023-07-06T19:32:35.158Z,23.09
2023-07-06T19:35:37.653Z,23.08
2023-07-06T19:38:39.489Z,22.99
2023-07-06T19:41:41.368Z,23.01
2023-07-06T19:44:43.228Z,23.00
2023-07-06T19:47:45.602Z,22.93
2023-07-06T19:50:48.587Z,22.87
2023-07-06T19:53:52.257Z,22.85
2023-07-06T19:56:54.419Z,22.78
2023-07-06T19:59:56.204Z,22.74
2023-07-06T20:02:58.068Z,22.72
2023-07-06T20:06:00.471Z,22.61
2023-07-06T20:09:02.332Z,22.59
2023-07-06T20:12:04.406Z,22.58
2023-07-06T20:15:06.896Z,22.46
2023-07-06T20:18:08.928Z,22.42
2023-07-06T20:21:10.877Z,22.47
2023-07-06T20:24:14.157Z,22.42
2023-07-06T20:27:15.984Z,22.37
2023-07-06T20:30:17.822Z,22.26
2023-07-06T20:33:21.021Z,22.16
2023-07-06T20:36:22.848Z,22.19
2023-07-06T20:39:24.709Z,22.08
2023-07-06T20:42:26.497Z,22.11
2023-07-06T20:45:28.373Z,22.06
2023-07-06T20:48:30.214Z,22.08
2023-07-06T20:51:32.023Z,21.93
2023-07-06T20:54:33.887Z,21.90
2023-07-06T20:57:35.721Z,21.82
2023-07-06T21:00:40.256Z,21.78
2023-07-06T21:03:43.402Z,21.78
2023-07-06T21:06:45.230Z,21.84
2023-07-06T21:09:47.021Z,21.84
2023-07-06T21:12:49.112Z,21.81
2023-07-06T21:15:52.107Z,21.74
2023-07-06T21:18:54.739Z,21.71
2023-07-06T21:21:56.503Z,21.65
2023-07-06T21:24:58.316Z,21.47
2023-07-06T21:28:00.190Z,21.43
2023-07-06T21:31:01.968Z,21.43
2023-07-06T21:34:04.192Z,21.47
2023-07-06T21:37:06.068Z,21.37
2023-07-06T21:40:08.618Z,21.38
2023-07-06T21:43:10.489Z,21.28
2023-07-06T21:46:13.059Z,21.10
2023-07-06T21:49:14.872Z,20.99
2023-07-06T21:52:16.616Z,21.02
2023-07-06T21:55:18.977Z,20.97
2023-07-06T21:58:20.717Z,20.98
2023-07-06T22:01:22.580Z,20.85
2023-07-06T22:04:24.595Z,20.87
2023-07-06T22:07:26.543Z,20.99
2023-07-06T22:10:28.294Z,20.84
2023-07-06T22:13:30.100Z,20.89
2023-07-06T22:16:32.104Z,20.83
2023-07-06T22:19:34.061Z,20.81
2023-07-06T22:22:36.053Z,20.80
2023-07-06T22:25:37.847Z,20.78
2023-07-06T22:28:39.725Z,20.74
2023-07-06T22:31:42.157Z,20.72
2023-07-06T22:34:43.976Z,20.76
2023-07-06T22:37:45.768Z,20.74
2023-07-06T22:40:47.566Z,20.70
2023-07-06T22:43:49.301Z,20.70
2023-07-06T22:46:52.720Z,20.71
2023-07-06T22:49:54.461Z,20.72
2023-07-06T22:52:59.911Z,20.73
2023-07-06T22:56:01.704Z,20.75
2023-07-06T22:59:03.704Z,20.71
2023-07-06T23:02:05.529Z,20.75
2023-07-06T23:05:07.890Z,20.66
2023-07-06T23:08:11.527Z,20.71
2023-07-06T23:11:14.583Z,20.71
2023-07-06T23:14:16.375Z,20.70
2023-07-06T23:17:18.275Z,20.57
2023-07-06T23:20:21.029Z,20.59
2023-07-06T23:23:22.788Z,20.51
2023-07-06T23:26:24.932Z,20.41
2023-07-06T23:29:34.199Z,20.41
2023-07-06T23:32:44.747Z,20.41
2023-07-06T23:35:47.194Z,20.42
2023-07-06T23:38:51.558Z,20.45
2023-07-06T23:41:53.288Z,20.48
2023-07-06T23:44:55.051Z,20.48
2023-07-06T23:47:56.916Z,20.48
2023-07-06T23:50:58.975Z,20.41
2023-07-06T23:54:01.000Z,20.38
2023-07-06T23:57:03.001Z,20.37
